Terminal Aerodrome Forecast
Issued by NWS

Home | Current Version | Previous Version | Text Only | Print | Product List | Glossary On
Versions: 1 2 3 4 5 6 7 8 9 10 11 12 13 14 15 16
000
FTUS43 KFGF 302239 AAA
TAFDVL
TAF AMD
KDVL 302239Z 3023/3118 17014G21KT P6SM BKN250
     FM310300 18013KT P6SM BKN250
     FM310900 VRB06KT P6SM BKN250
     FM311200 VRB04KT P6SM VCSH BKN100
     FM311500 28012KT P6SM BKN100
      AMD LTD TO CLD VIS AND WIND=

USA.gov is the U.S. government's official web portal to all federal, state and local government web resources and services.